Portada
METAR-TAF:

METAR-TAF

Aeroports :

Ranchi, Índia

latitud: 23-18-51N, longitud: 85-19-18E, altitud: 646 m

Observació

L'informe es va fer fa 1 hora i 7 minuts, a les 20:00 UTC
Vent calma
Temperatura 15°C
Humitat 63%
Pressió 1017 hPa
Visibilitat: 3000 m
calitja

METAR: VERC 172000Z 00000KT 3000 HZ NSC 15/08 Q1017 NOSIG

Hora: 02:37 (21:07 UTC)

Pronòstic

L'informe es va fer fa 1 hora i 7 minuts, a les 20:00 UTC
Pronòstic vàlid del 17 a les 21 UTC al 18 a les 06 UTC
Vent kt del Nord
Visibilitat: 2000 m
calitja
Evolucionant progressivament
l' 18 a les 03 UTC al 18 a les 05 UTC
Vent 5 kt del Nord/Nord-Oest
Visibilitat: 5000 m
calitja

TAF: VERC 172000Z 1721/1806 00000KT 2000 HZ NSC BECMG 1803/1805 34005KT 5000 HZ

Observacions i pronòstics meteorològics de més de 4000 aeroports (METAR i TAF).

Les estacions disponibles són els punts grocs i vermells al mapa.

Posi el ratolí al punt desitjat per veure el nom de l'estació.

Feu clic per veure les observacions i els pronòstics meteorològics.

Per canviar el mapa: feu clic els botons verds amb una creu de color negre per apropar; al botó verd amb un guió per allunyar la imatge; o en les fletxes verdes per a mapes adjacents.


METAR-TAF: